Time;durP1;ratioP1;P1;durP2;ratioP2;P2;SDS_P1;SDS_P2;PMS_P1;PMS_P2;Temp;Humidity;BMP_temperature;BMP_pressure;BME280_temperature;BME280_humidity;BME280_pressure;Samples;Min_cycle;Max_cycle;Signal;HPM_P1;HPM_P2
2022/01/15 00:00:09;;;;;;;10.80;3.10;;;;;;;-1.32;100.00;102252.19;5054816;28;20055;-84
2022/01/15 00:02:36;;;;;;;6.73;2.43;;;;;;;-1.39;100.00;102250.06;5059949;28;20046;-84
2022/01/15 00:05:08;;;;;;;7.97;3.00;;;;;;;-1.39;100.00;102262.16;5062569;28;20043;-85
2022/01/15 00:07:35;;;;;;;7.70;3.43;;;;;;;-1.42;100.00;102263.78;5061540;28;20096;-85
2022/01/15 00:10:06;;;;;;;8.60;2.57;;;;;;;-1.47;100.00;102256.56;5079631;28;20085;-85
2022/01/15 00:12:40;;;;;;;8.70;2.77;;;;;;;-1.53;100.00;102262.28;5062278;28;20050;-85
2022/01/15 00:15:23;;;;;;;10.80;3.27;;;;;;;-1.55;100.00;102255.25;5045173;28;20054;-84
2022/01/15 00:18:04;;;;;;;8.20;2.73;;;;;;;-1.54;100.00;102251.84;5057216;28;20048;-84
2022/01/15 00:20:34;;;;;;;6.90;2.80;;;;;;;-1.57;100.00;102246.50;5061217;28;20048;-85
2022/01/15 00:23:00;;;;;;;7.97;2.93;;;;;;;-1.61;100.00;102240.25;5055944;28;20048;-84
2022/01/15 00:25:35;;;;;;;8.00;3.13;;;;;;;-1.73;100.00;102245.66;5050895;28;20408;-84
2022/01/15 00:29:09;;;;;;;14.50;3.80;;;;;;;-1.64;100.00;102241.78;5065336;28;20488;-84
2022/01/15 00:31:57;;;;;;;9.20;3.13;;;;;;;-1.67;100.00;102233.88;5029039;28;20074;-85
2022/01/15 00:34:24;;;;;;;8.43;2.77;;;;;;;-1.74;100.00;102238.72;5059302;28;20055;-85
2022/01/15 00:36:51;;;;;;;10.90;2.80;;;;;;;-1.75;100.00;102236.03;5060002;28;20036;-84
2022/01/15 00:39:19;;;;;;;12.07;3.23;;;;;;;-1.80;100.00;102230.59;5060178;28;20085;-84
2022/01/15 00:41:46;;;;;;;7.83;3.10;;;;;;;-1.76;100.00;102236.84;5054035;28;20052;-84
2022/01/15 00:44:13;;;;;;;11.63;2.70;;;;;;;-1.84;100.00;102231.25;5065731;28;20653;-84
2022/01/15 00:46:45;;;;;;;9.63;3.17;;;;;;;-1.84;100.00;102235.53;5054140;28;20140;-84
2022/01/15 00:49:24;;;;;;;5.90;2.57;;;;;;;-1.89;100.00;102237.88;5055160;28;20054;-84
2022/01/15 00:52:08;;;;;;;7.03;3.03;;;;;;;-1.89;100.00;102243.03;5068284;28;20048;-84
2022/01/15 00:54:49;;;;;;;10.43;3.37;;;;;;;-1.89;100.00;102230.09;5043253;28;20043;-85
2022/01/15 01:01:04;;;;;;;7.70;3.13;;;;;;;-1.88;100.00;102231.88;4978809;28;20062;-85
2022/01/15 01:03:34;;;;;;;11.10;3.67;;;;;;;-1.90;100.00;102237.78;5057440;28;20126;-85
2022/01/15 01:06:06;;;;;;;9.93;3.53;;;;;;;-1.93;100.00;102238.50;5058810;28;20054;-85
2022/01/15 01:08:36;;;;;;;10.50;3.30;;;;;;;-1.94;100.00;102241.88;5074921;28;20122;-86
2022/01/15 01:11:11;;;;;;;6.03;3.37;;;;;;;-1.97;100.00;102239.13;5052936;28;20048;-86
2022/01/15 01:20:03;;;;;;;11.93;3.40;;;;;;;-1.98;100.00;102237.34;5052860;28;20523;-86
2022/01/15 01:22:51;;;;;;;16.57;5.33;;;;;;;-1.86;100.00;102224.19;5074429;28;20048;-85
2022/01/15 01:24:55;;;;;;;11.40;2.97;;;;;;;-1.93;100.00;102229.81;5067379;28;20044;-86
2022/01/15 01:27:41;;;;;;;9.23;3.00;;;;;;;-1.98;100.00;102227.00;5052771;28;20051;-86
2022/01/15 01:30:19;;;;;;;12.57;2.70;;;;;;;-1.99;100.00;102231.28;5060339;28;20036;-87
2022/01/15 01:33:03;;;;;;;7.90;3.13;;;;;;;-2.01;100.00;102227.72;5058151;28;20097;-86
2022/01/15 01:35:36;;;;;;;15.32;3.42;;;;;;;-2.00;100.00;102223.44;5046698;28;20036;-85
2022/01/15 01:38:15;;;;;;;8.33;3.93;;;;;;;-2.04;100.00;102232.72;5046869;28;20503;-86
2022/01/15 01:40:49;;;;;;;7.07;3.67;;;;;;;-2.02;100.00;102244.06;5075275;28;20554;-86
2022/01/15 01:49:21;;;;;;;11.07;3.38;;;;;;;-1.99;100.00;102227.81;5083119;28;20058;-85
2022/01/15 01:52:40;;;;;;;7.33;2.50;;;;;;;-2.00;100.00;102229.50;5068039;28;20519;-86
2022/01/15 01:56:17;;;;;;;12.23;5.47;;;;;;;-1.91;100.00;102238.59;5072097;28;20113;-85
2022/01/15 01:59:33;;;;;;;10.85;4.03;;;;;;;-1.99;100.00;102240.75;5087343;28;20063;-87
2022/01/15 02:02:25;;;;;;;8.57;3.80;;;;;;;-2.06;100.00;102238.63;5047903;28;20125;-87
2022/01/15 02:04:57;;;;;;;12.37;3.40;;;;;;;-2.11;100.00;102238.34;5046214;28;20096;-86
2022/01/15 02:07:26;;;;;;;8.10;3.57;;;;;;;-2.09;100.00;102238.47;5048728;28;20044;-85
2022/01/15 02:10:00;;;;;;;7.97;3.97;;;;;;;-2.11;100.00;102233.19;5056016;28;20044;-86
2022/01/15 02:13:00;;;;;;;;;;;;;;;;;;;;;
2022/01/15 02:15:47;;;;;;;11.80;5.03;;;;;;;-2.15;100.00;102225.16;5084998;28;20051;-86
2022/01/15 02:18:14;;;;;;;12.80;4.70;;;;;;;-2.17;100.00;102230.28;5069383;28;20071;-84
2022/01/15 02:23:31;;;;;;;8.87;4.57;;;;;;;-2.13;100.00;102228.72;5054223;28;20397;-85
2022/01/15 02:23:50;;;;;;;17.08;4.60;;;;;;;-2.11;100.00;102212.47;5089888;28;20047;-85
2022/01/15 02:26:23;;;;;;;11.33;3.93;;;;;;;-2.06;100.00;102207.56;5058883;28;20046;-85
2022/01/15 02:28:58;;;;;;;10.80;4.70;;;;;;;-2.15;100.00;102210.53;5048686;28;20101;-85
2022/01/15 02:31:27;;;;;;;14.90;4.50;;;;;;;-2.14;100.00;102216.59;5069938;28;20050;-86
2022/01/15 02:34:02;;;;;;;7.67;3.00;;;;;;;-2.12;100.00;102223.63;5053380;28;20101;-83
2022/01/15 02:36:35;;;;;;;10.00;2.93;;;;;;;-2.10;100.00;102218.53;5073475;28;20130;-84
2022/01/15 02:39:04;;;;;;;7.37;3.13;;;;;;;-2.10;100.00;102224.63;5056966;28;20048;-85
2022/01/15 02:41:36;;;;;;;7.80;2.73;;;;;;;-2.14;100.00;102226.94;5070442;28;20134;-85
2022/01/15 02:44:10;;;;;;;6.97;2.70;;;;;;;-2.12;100.00;102223.63;5058514;28;20047;-86
2022/01/15 02:49:16;;;;;;;14.90;4.53;;;;;;;-2.10;100.00;102222.03;5074544;28;20048;-84
2022/01/15 02:51:43;;;;;;;13.80;3.90;;;;;;;-2.13;100.00;102220.97;5053233;28;20051;-86
2022/01/15 02:54:10;;;;;;;12.33;2.97;;;;;;;-2.13;100.00;102215.78;5051496;28;20039;-85
2022/01/15 02:56:40;;;;;;;8.40;3.20;;;;;;;-2.16;100.00;102213.03;5054164;28;20028;-85
2022/01/15 02:59:16;;;;;;;14.10;4.43;;;;;;;-2.02;100.00;102217.25;5062293;28;20044;-85
2022/01/15 03:01:42;;;;;;;14.67;4.93;;;;;;;-2.11;100.00;102214.16;5049569;28;20511;-86
2022/01/15 03:04:09;;;;;;;13.20;4.40;;;;;;;-2.15;100.00;102215.72;5042712;28;20048;-85
2022/01/15 03:06:36;;;;;;;7.87;2.90;;;;;;;-2.16;100.00;102216.50;5068512;28;20085;-85
2022/01/15 03:09:04;;;;;;;13.17;3.33;;;;;;;-2.14;100.00;102209.72;5048090;28;20221;-85
2022/01/15 03:11:30;;;;;;;10.93;3.60;;;;;;;-2.16;100.00;102207.84;5068206;28;20086;-86
2022/01/15 03:14:01;;;;;;;8.93;3.00;;;;;;;-2.21;100.00;102206.69;5055782;28;20432;-85
2022/01/15 03:16:28;;;;;;;15.37;4.00;;;;;;;-2.18;100.00;102205.19;5058237;28;20538;-85
2022/01/15 03:18:58;;;;;;;9.43;2.83;;;;;;;-2.15;100.00;102209.63;5062201;28;20044;-85
2022/01/15 03:21:24;;;;;;;14.33;3.47;;;;;;;-2.15;100.00;102194.09;5054440;28;20050;-87
2022/01/15 03:23:51;;;;;;;15.87;3.60;;;;;;;-2.21;100.00;102197.22;5056134;28;20055;-85
2022/01/15 03:26:18;;;;;;;7.97;4.03;;;;;;;-2.25;100.00;102200.47;5055184;28;20047;-85
2022/01/15 03:28:44;;;;;;;12.80;3.77;;;;;;;-2.15;100.00;102196.69;5064809;28;20043;-85
2022/01/15 03:31:17;;;;;;;10.27;2.90;;;;;;;-2.22;100.00;102190.28;5046815;28;20133;-85
2022/01/15 03:33:45;;;;;;;14.10;3.70;;;;;;;-2.19;100.00;102192.13;5041309;28;20739;-85
2022/01/15 03:36:14;;;;;;;14.53;4.83;;;;;;;-2.19;100.00;102192.13;5054435;28;20054;-85
2022/01/15 03:38:41;;;;;;;11.90;4.43;;;;;;;-2.25;100.00;102181.47;5065966;28;20043;-85
2022/01/15 03:41:15;;;;;;;11.35;4.72;;;;;;;-2.21;100.00;102183.41;5058012;28;20623;-85
2022/01/15 03:43:43;;;;;;;12.63;2.93;;;;;;;-2.23;100.00;102180.72;5051882;28;20046;-85
2022/01/15 03:46:10;;;;;;;10.03;3.07;;;;;;;-2.23;100.00;102169.47;5058876;28;20097;-84
2022/01/15 03:48:39;;;;;;;10.37;3.07;;;;;;;-2.27;100.00;102169.31;5053361;28;20093;-84
2022/01/15 03:51:06;;;;;;;14.70;3.60;;;;;;;-2.24;100.00;102157.34;5059377;28;20508;-86
2022/01/15 03:53:33;;;;;;;10.33;3.00;;;;;;;-2.28;100.00;102154.56;5059262;28;20036;-83
2022/01/15 03:55:59;;;;;;;11.23;4.23;;;;;;;-2.26;100.00;102146.91;5042923;28;20097;-84
2022/01/15 03:58:26;;;;;;;13.83;3.50;;;;;;;-2.25;100.00;102147.81;5053954;28;20670;-82
2022/01/15 04:00:53;;;;;;;11.33;3.20;;;;;;;-2.30;100.00;102140.66;5053878;28;20051;-84
2022/01/15 04:03:20;;;;;;;10.13;2.80;;;;;;;-2.29;100.00;102149.31;5051419;28;20044;-84
2022/01/15 04:05:47;;;;;;;11.77;3.30;;;;;;;-2.32;100.00;102152.63;5061426;28;20044;-84
2022/01/15 04:08:13;;;;;;;13.70;2.80;;;;;;;-2.37;100.00;102146.31;5064176;28;20059;-84
2022/01/15 04:10:40;;;;;;;11.27;3.80;;;;;;;-2.37;100.00;102143.72;5087102;23;20041;-79
2022/01/15 04:13:07;;;;;;;8.20;3.70;;;;;;;-2.39;100.00;102149.63;5068831;28;20070;-79
2022/01/15 04:15:35;;;;;;;11.47;3.10;;;;;;;-2.40;100.00;102153.91;5039042;28;20041;-79
2022/01/15 04:18:01;;;;;;;10.33;3.73;;;;;;;-2.37;100.00;102158.34;5056597;28;20097;-79
2022/01/15 04:20:28;;;;;;;10.03;2.47;;;;;;;-2.44;100.00;102146.75;5058295;28;20044;-79
2022/01/15 04:22:55;;;;;;;9.63;3.20;;;;;;;-2.43;100.00;102143.41;5073299;28;20067;-78
2022/01/15 04:25:22;;;;;;;8.23;3.30;;;;;;;-2.40;100.00;102135.78;5055282;28;20102;-79
2022/01/15 04:27:49;;;;;;;11.77;3.90;;;;;;;-2.39;100.00;102129.81;5052048;28;20037;-79
2022/01/15 04:30:17;;;;;;;10.97;3.87;;;;;;;-2.40;100.00;102128.03;5053300;28;20051;-79
2022/01/15 04:32:44;;;;;;;9.07;2.93;;;;;;;-2.43;100.00;102133.03;5056654;28;20055;-79
2022/01/15 04:35:10;;;;;;;7.87;2.90;;;;;;;-2.42;100.00;102128.75;5048202;28;20040;-79
2022/01/15 04:37:42;;;;;;;13.60;4.00;;;;;;;-2.37;100.00;102125.59;5058092;28;20040;-78
2022/01/15 04:40:09;;;;;;;16.47;4.77;;;;;;;-2.37;100.00;102127.28;5064925;28;20520;-78
2022/01/15 04:42:36;;;;;;;7.60;2.50;;;;;;;-2.46;100.00;102135.44;5065714;28;20051;-78
2022/01/15 04:45:06;;;;;;;8.10;3.17;;;;;;;-2.48;100.00;102131.88;5059067;28;20047;-80
2022/01/15 04:47:33;;;;;;;8.33;2.90;;;;;;;-2.50;100.00;102136.09;5039023;28;20062;-79
2022/01/15 04:50:00;;;;;;;8.13;2.50;;;;;;;-2.51;100.00;102147.25;5054340;28;20057;-80
2022/01/15 04:52:26;;;;;;;12.83;2.77;;;;;;;-2.52;100.00;102153.25;5064115;28;20040;-80
2022/01/15 04:54:53;;;;;;;12.10;3.60;;;;;;;-2.47;100.00;102146.59;5070972;28;20507;-79
2022/01/15 04:57:20;;;;;;;8.53;2.97;;;;;;;-2.49;100.00;102150.81;5068444;28;20040;-80
2022/01/15 04:59:46;;;;;;;14.53;3.53;;;;;;;-2.49;100.00;102152.50;5056964;28;20052;-79
2022/01/15 05:02:13;;;;;;;21.13;4.77;;;;;;;-2.44;100.00;102162.28;5055370;28;20040;-81
2022/01/15 05:04:39;;;;;;;20.20;5.60;;;;;;;-2.36;100.00;102154.94;5069936;28;20051;-81
2022/01/15 05:07:10;;;;;;;9.17;4.63;;;;;;;-2.29;100.00;102159.66;5036132;28;20446;-80
2022/01/15 05:09:37;;;;;;;12.90;3.87;;;;;;;-2.19;100.00;102159.38;5057821;28;20403;-79
2022/01/15 05:12:28;;;;;;;13.33;4.17;;;;;;;-2.13;100.00;102159.72;5052039;28;20043;-81
2022/01/15 05:14:55;;;;;;;19.33;4.17;;;;;;;-2.12;100.00;102164.06;5058808;28;20093;-78
2022/01/15 05:17:22;;;;;;;15.77;4.53;;;;;;;-2.01;100.00;102169.88;5033408;28;20048;-80
2022/01/15 05:19:49;;;;;;;16.43;4.60;;;;;;;-1.91;100.00;102160.91;5040409;28;20097;-80
2022/01/15 05:22:17;;;;;;;13.73;4.23;;;;;;;-1.83;100.00;102176.03;5057781;28;20687;-80
2022/01/15 05:24:44;;;;;;;16.30;4.43;;;;;;;-1.78;100.00;102174.56;5043768;28;20053;-79
2022/01/15 05:27:10;;;;;;;14.03;4.37;;;;;;;-1.72;100.00;102174.91;5061895;28;20044;-79
2022/01/15 05:29:37;;;;;;;13.47;4.63;;;;;;;-1.65;100.00;102173.53;5052171;28;20047;-79
2022/01/15 05:32:04;;;;;;;17.77;6.00;;;;;;;-1.57;100.00;102173.94;5070736;28;20382;-80
2022/01/15 05:34:33;;;;;;;17.07;4.47;;;;;;;-1.55;100.00;102159.34;5037699;28;20040;-79
2022/01/15 05:37:01;;;;;;;10.87;4.60;;;;;;;-1.50;100.00;102160.50;5053161;28;20118;-81
2022/01/15 05:39:28;;;;;;;15.10;5.33;;;;;;;-1.42;100.00;102161.78;5070128;28;20097;-81
2022/01/15 05:41:55;;;;;;;16.37;5.43;;;;;;;-1.38;100.00;102168.00;5054936;28;20093;-80
2022/01/15 05:44:21;;;;;;;15.27;3.90;;;;;;;-1.37;100.00;102168.09;5039514;28;20048;-79
2022/01/15 05:46:48;;;;;;;11.37;4.63;;;;;;;-1.35;100.00;102160.38;5054753;28;20059;-80
2022/01/15 05:49:15;;;;;;;12.17;4.07;;;;;;;-1.32;100.00;102151.09;5055020;28;20051;-80
2022/01/15 05:51:42;;;;;;;10.97;4.63;;;;;;;-1.23;100.00;102151.53;5053267;28;20504;-78
2022/01/15 05:54:10;;;;;;;11.43;3.60;;;;;;;-1.23;100.00;102156.72;5052893;28;20463;-80
2022/01/15 05:56:38;;;;;;;10.53;4.77;;;;;;;-1.19;100.00;102156.06;5075503;28;20613;-80
2022/01/15 05:59:04;;;;;;;10.87;4.77;;;;;;;-1.19;100.00;102157.78;5055514;28;20427;-78
2022/01/15 06:01:31;;;;;;;14.37;4.90;;;;;;;-1.18;100.00;102160.47;5065220;28;20055;-80
2022/01/15 06:03:58;;;;;;;13.73;6.70;;;;;;;-1.14;100.00;102162.38;5042164;28;20778;-79
2022/01/15 06:06:25;;;;;;;10.20;4.23;;;;;;;-1.09;100.00;102161.72;5041835;28;20162;-80
2022/01/15 06:08:51;;;;;;;8.77;4.17;;;;;;;-1.09;100.00;102157.44;5054946;28;20466;-79
2022/01/15 06:11:18;;;;;;;7.37;3.37;;;;;;;-1.08;100.00;102168.72;5039296;28;20044;-81
2022/01/15 06:13:45;;;;;;;14.03;3.90;;;;;;;-1.10;100.00;102158.22;5036029;28;20094;-80
2022/01/15 06:16:15;;;;;;;7.90;3.90;;;;;;;-1.06;100.00;102161.88;5053565;28;20044;-80
2022/01/15 06:18:41;;;;;;;12.93;4.37;;;;;;;-0.97;100.00;102164.94;5048734;28;20040;-80
2022/01/15 06:21:08;;;;;;;8.77;4.53;;;;;;;-1.00;100.00;102172.59;5054732;28;20086;-78
2022/01/15 06:23:35;;;;;;;14.10;4.63;;;;;;;-0.90;100.00;102170.53;5037210;28;20084;-80
2022/01/15 06:26:02;;;;;;;11.30;4.07;;;;;;;-0.99;100.00;102172.66;5035939;28;20047;-81
2022/01/15 06:28:28;;;;;;;10.63;4.20;;;;;;;-0.96;100.00;102172.78;5044983;28;20040;-80
2022/01/15 06:30:55;;;;;;;12.90;4.70;;;;;;;-0.96;100.00;102177.09;5051325;28;20048;-78
2022/01/15 06:33:22;;;;;;;10.73;4.50;;;;;;;-0.97;100.00;102183.09;5054403;28;20108;-80
2022/01/15 06:35:48;;;;;;;9.07;3.33;;;;;;;-0.96;100.00;102184.88;5038315;28;20090;-79
2022/01/15 06:38:15;;;;;;;8.77;4.97;;;;;;;-0.95;100.00;102177.16;5049732;28;20028;-79
2022/01/15 06:40:41;;;;;;;13.03;4.63;;;;;;;-0.91;100.00;102179.13;5045097;28;20674;-82
2022/01/15 06:43:08;;;;;;;10.27;5.10;;;;;;;-0.87;100.00;102187.94;5033502;28;20070;-79
2022/01/15 06:45:35;;;;;;;39.33;6.53;;;;;;;-0.90;100.00;102192.97;5036445;28;20497;-80
2022/01/15 06:48:02;;;;;;;10.10;4.20;;;;;;;-0.89;100.00;102194.75;5053851;28;20058;-79
2022/01/15 06:50:29;;;;;;;7.57;3.67;;;;;;;-0.87;100.00;102187.94;5070895;28;20097;-81
2022/01/15 06:52:57;;;;;;;14.40;4.17;;;;;;;-0.86;100.00;102185.41;5035098;28;20654;-80
2022/01/15 06:55:23;;;;;;;10.50;3.97;;;;;;;-0.90;100.00;102190.38;5056625;28;20098;-79
2022/01/15 06:57:50;;;;;;;8.50;4.13;;;;;;;-0.89;100.00;102194.75;5035040;28;20043;-78
2022/01/15 07:00:17;;;;;;;9.77;4.37;;;;;;;-0.88;100.00;102197.41;5050517;28;20095;-79
2022/01/15 07:02:44;;;;;;;9.43;4.60;;;;;;;-0.88;100.00;102202.63;5055978;28;20048;-79
2022/01/15 07:05:11;;;;;;;11.60;4.80;;;;;;;-0.82;100.00;102202.03;5051511;28;20476;-80
2022/01/15 07:07:44;;;;;;;11.03;6.53;;;;;;;-0.79;100.00;102209.97;5057173;28;20477;-79
2022/01/15 07:10:10;;;;;;;11.77;5.23;;;;;;;-0.81;100.00;102211.59;5053357;28;20074;-79
2022/01/15 07:12:37;;;;;;;8.13;4.40;;;;;;;-0.82;100.00;102212.41;5066404;28;20044;-79
2022/01/15 07:15:04;;;;;;;32.07;16.33;;;;;;;-0.81;100.00;102214.19;5040951;28;20039;-79
2022/01/15 07:17:31;;;;;;;30.83;13.43;;;;;;;-0.82;100.00;102212.41;5057807;28;20043;-79
2022/01/15 07:19:58;;;;;;;68.80;37.27;;;;;;;-0.77;100.00;102215.22;5077890;28;20051;-80
2022/01/15 07:22:24;;;;;;;33.00;18.10;;;;;;;-0.74;100.00;102224.06;5053837;28;20039;-79
2022/01/15 07:24:51;;;;;;;43.27;30.17;;;;;;;-0.70;100.00;102226.00;5059145;28;20044;-79
2022/01/15 07:27:18;;;;;;;12.67;6.90;;;;;;;-0.73;100.00;102233.63;5041654;28;20047;-80
2022/01/15 07:29:45;;;;;;;7.87;4.90;;;;;;;-0.73;100.00;102232.75;5059724;28;20039;-79
2022/01/15 07:32:11;;;;;;;8.83;3.77;;;;;;;-0.71;100.00;102242.38;5072617;28;20086;-79
2022/01/15 07:34:38;;;;;;;10.83;4.77;;;;;;;-0.73;100.00;102244.03;5068584;28;20137;-79
2022/01/15 07:37:05;;;;;;;10.50;4.83;;;;;;;-0.73;100.00;102237.94;5041076;28;20481;-79
2022/01/15 07:39:34;;;;;;;11.83;4.80;;;;;;;-0.66;100.00;102242.63;5041535;28;20058;-79
2022/01/15 07:42:01;;;;;;;12.90;5.17;;;;;;;-0.70;100.00;102244.16;5052569;28;20113;-80
2022/01/15 07:44:27;;;;;;;12.43;5.57;;;;;;;-0.71;100.00;102244.97;5055015;28;20045;-80
2022/01/15 07:46:54;;;;;;;7.70;3.90;;;;;;;-0.70;100.00;102241.56;5057793;28;20126;-80
2022/01/15 07:49:22;;;;;;;10.50;5.67;;;;;;;-0.66;100.00;102247.81;5058937;28;20047;-80
2022/01/15 07:51:49;;;;;;;8.13;4.47;;;;;;;-0.64;100.00;102251.38;5059567;28;20052;-79
2022/01/15 07:54:16;;;;;;;10.47;4.40;;;;;;;-0.63;100.00;102250.56;5057770;28;20047;-79
2022/01/15 07:56:42;;;;;;;8.90;5.03;;;;;;;-0.62;100.00;102240.25;5065074;28;20055;-81
2022/01/15 07:59:09;;;;;;;10.40;5.70;;;;;;;-0.60;100.00;102243.81;5058457;28;20040;-81
2022/01/15 08:01:36;;;;;;;10.97;4.90;;;;;;;-0.57;100.00;102235.31;5056866;28;20110;-79
2022/01/15 08:04:03;;;;;;;8.90;4.10;;;;;;;-0.55;100.00;102235.38;5049177;28;20048;-78
2022/01/15 08:06:30;;;;;;;9.60;4.47;;;;;;;-0.55;100.00;102233.66;5065495;28;20154;-78
2022/01/15 08:08:56;;;;;;;12.47;4.40;;;;;;;-0.51;100.00;102242.47;5059164;28;20051;-78
2022/01/15 08:11:23;;;;;;;10.33;4.83;;;;;;;-0.49;100.00;102240.88;5072745;28;20052;-79
2022/01/15 08:13:50;;;;;;;11.77;4.97;;;;;;;-0.47;100.00;102242.72;5058040;28;20040;-79
2022/01/15 08:16:16;;;;;;;11.67;6.10;;;;;;;-0.41;100.00;102237.84;5056765;28;20098;-79
2022/01/15 08:18:43;;;;;;;11.47;5.13;;;;;;;-0.44;100.00;102249.75;5053553;28;20047;-79
2022/01/15 08:21:09;;;;;;;11.90;6.17;;;;;;;-0.44;100.00;102245.47;5061786;28;20041;-80
2022/01/15 08:23:38;;;;;;;10.70;5.67;;;;;;;-0.41;100.00;102236.97;5074043;28;20047;-80
2022/01/15 08:26:04;;;;;;;10.23;4.97;;;;;;;-0.42;100.00;102224.75;5039916;28;20605;-81
2022/01/15 08:28:31;;;;;;;14.10;6.13;;;;;;;-0.42;100.00;102235.16;5048489;28;20657;-80
2022/01/15 08:30:58;;;;;;;13.87;4.50;;;;;;;-0.35;100.00;102245.03;5073291;28;20036;-78
2022/01/15 08:33:25;;;;;;;10.80;4.90;;;;;;;-0.39;100.00;102237.91;5073849;28;20550;-79
2022/01/15 08:35:52;;;;;;;8.43;4.33;;;;;;;-0.38;100.00;102231.91;5038581;28;20036;-78
2022/01/15 08:38:18;;;;;;;10.90;4.90;;;;;;;-0.36;100.00;102246.72;5071173;28;20048;-79
2022/01/15 08:40:45;;;;;;;9.57;5.63;;;;;;;-0.34;100.00;102245.13;5070095;28;20497;-79
2022/01/15 08:43:12;;;;;;;14.73;6.30;;;;;;;-0.29;100.00;102247.94;5071932;28;20047;-81
2022/01/15 08:45:39;;;;;;;80.00;32.30;;;;;;;-0.19;100.00;102255.34;5036189;28;20040;-81
2022/01/15 08:48:07;;;;;;;24.73;9.60;;;;;;;-0.18;100.00;102259.72;5058082;28;20123;-80
2022/01/15 08:50:35;;;;;;;138.73;45.07;;;;;;;-0.15;100.00;102269.41;5040090;28;20550;-81
2022/01/15 08:53:07;;;;;;;130.93;48.80;;;;;;;-0.21;100.00;102271.69;5055619;28;20040;-82
2022/01/15 08:55:35;;;;;;;24.47;11.57;;;;;;;-0.19;100.00;102275.25;5059665;28;20044;-81
2022/01/15 08:58:03;;;;;;;13.63;7.13;;;;;;;-0.15;100.00;102272.00;5047408;28;20036;-81
2022/01/15 09:00:30;;;;;;;15.33;8.83;;;;;;;-0.17;100.00;102268.41;5046373;28;20054;-81
2022/01/15 09:02:57;;;;;;;23.03;11.03;;;;;;;-0.16;100.00;102265.91;5061945;28;20051;-83
2022/01/15 09:05:24;;;;;;;18.03;8.40;;;;;;;-0.14;100.00;102269.47;5044064;28;20130;-80
2022/01/15 09:07:51;;;;;;;16.80;6.47;;;;;;;-0.13;100.00;102271.25;5055659;28;20047;-81
2022/01/15 09:10:18;;;;;;;10.90;5.23;;;;;;;-0.12;100.00;102267.81;5040257;28;20048;-81
2022/01/15 09:12:47;;;;;;;12.00;5.17;;;;;;;-0.09;100.00;102265.34;5055484;28;20048;-82
2022/01/15 09:15:30;;;;;;;12.17;5.20;;;;;;;0.03;100.00;102269.38;5053062;28;20043;-81
2022/01/15 09:17:56;;;;;;;13.90;7.03;;;;;;;-0.06;100.00;102267.25;5042914;28;20051;-81
2022/01/15 09:20:23;;;;;;;12.27;7.63;;;;;;;-0.03;100.00;102275.16;5061033;28;20056;-81
2022/01/15 09:22:50;;;;;;;11.40;5.90;;;;;;;-0.03;100.00;102273.47;5034688;28;20046;-81
2022/01/15 09:25:17;;;;;;;13.00;5.90;;;;;;;-0.04;100.00;102276.88;5055919;28;20050;-81
2022/01/15 09:30:29;;;;;;;13.87;6.93;;;;;;;0.03;100.00;102261.59;5058887;28;20036;-81
2022/01/15 09:32:56;;;;;;;13.17;7.63;;;;;;;0.04;100.00;102268.56;5054565;28;20040;-81
2022/01/15 09:35:25;;;;;;;12.57;6.40;;;;;;;0.07;100.00;102276.50;5040099;28;20046;-82
2022/01/15 09:37:52;;;;;;;12.70;6.60;;;;;;;0.12;100.00;102267.22;5038211;28;20040;-83
2022/01/15 09:40:20;;;;;;;12.53;5.90;;;;;;;0.12;100.00;102267.22;5072809;28;20048;-82
2022/01/15 09:42:49;;;;;;;21.73;11.20;;;;;;;0.14;100.00;102270.78;5037385;28;20396;-81
2022/01/15 09:45:18;;;;;;;29.40;15.50;;;;;;;0.19;100.00;102271.91;5037028;28;20036;-82
2022/01/15 09:47:45;;;;;;;16.60;7.60;;;;;;;0.21;100.00;102260.75;5052085;28;20040;-82
2022/01/15 09:50:14;;;;;;;20.63;8.27;;;;;;;0.20;100.00;102263.28;5055818;28;20048;-82
2022/01/15 09:52:40;;;;;;;18.63;10.37;;;;;;;0.23;100.00;102253.91;5054349;28;20592;-83
2022/01/15 09:55:09;;;;;;;21.23;10.37;;;;;;;0.25;100.00;102248.78;5055776;28;20058;-81
2022/01/15 09:57:38;;;;;;;18.70;8.93;;;;;;;0.31;100.00;102249.06;5036327;28;20128;-83
2022/01/15 10:00:07;;;;;;;19.73;8.20;;;;;;;0.31;100.00;102249.06;5047855;28;20040;-82
2022/01/15 10:02:36;;;;;;;18.40;6.40;;;;;;;0.39;100.00;102252.91;5052850;28;20044;-82
2022/01/15 10:05:03;;;;;;;36.23;15.67;;;;;;;0.42;100.00;102250.47;5057481;28;20577;-82
2022/01/15 10:07:29;;;;;;;15.90;8.70;;;;;;;0.43;100.00;102247.06;5042683;28;20040;-82
2022/01/15 10:10:11;;;;;;;14.07;7.17;;;;;;;0.53;100.00;102253.56;5040769;28;20048;-82
2022/01/15 10:12:41;;;;;;;14.33;5.80;;;;;;;0.45;100.00;102253.22;5036713;28;20044;-82
2022/01/15 10:15:09;;;;;;;13.70;6.37;;;;;;;0.50;100.00;102249.09;5122794;22;20503;-82
2022/01/15 10:17:37;;;;;;;16.00;7.30;;;;;;;0.53;100.00;102250.97;5012637;28;20045;-83
2022/01/15 10:20:10;;;;;;;23.70;10.83;;;;;;;0.49;100.00;102254.22;5009662;28;20095;-83
2022/01/15 10:22:42;;;;;;;26.60;12.27;;;;;;;0.48;100.00;102248.13;5033329;28;20047;-81
2022/01/15 10:25:14;;;;;;;21.13;9.73;;;;;;;0.46;100.00;102244.59;5053149;28;20089;-81
2022/01/15 10:27:42;;;;;;;15.67;7.90;;;;;;;0.55;100.00;102241.50;5024191;28;20040;-82
2022/01/15 10:30:22;;;;;;;18.60;8.27;;;;;;;0.69;100.00;102239.53;5049823;28;20128;-83
2022/01/15 10:33:07;;;;;;;15.17;5.43;;;;;;;0.74;100.00;102230.22;5025617;28;20062;-84
2022/01/15 10:35:41;;;;;;;15.13;5.70;;;;;;;0.75;100.00;102225.06;5016256;28;20060;-83
2022/01/15 10:38:12;;;;;;;18.00;6.93;;;;;;;0.72;100.00;102224.94;5015558;28;20047;-83
2022/01/15 10:40:44;;;;;;;26.27;6.47;;;;;;;0.77;100.00;102225.16;5037346;28;20044;-83
2022/01/15 10:43:16;;;;;;;21.63;6.73;;;;;;;0.90;100.00;102227.47;5034638;28;20068;-83
2022/01/15 10:46:09;;;;;;;18.07;7.40;;;;;;;0.88;100.00;102230.84;5020634;28;20075;-83
2022/01/15 10:48:37;;;;;;;21.07;11.00;;;;;;;0.82;100.00;102232.34;5019253;28;20073;-83
2022/01/15 10:51:08;;;;;;;24.40;12.83;;;;;;;0.81;100.00;102229.66;5037225;28;20098;-83
2022/01/15 10:53:38;;;;;;;15.67;6.40;;;;;;;0.93;100.00;102217.22;5024786;28;20132;-83
2022/01/15 10:56:08;;;;;;;15.17;7.13;;;;;;;0.92;100.00;102220.63;5020139;28;20041;-84
2022/01/15 10:58:36;;;;;;;13.60;5.80;;;;;;;0.91;100.00;102218.84;5020452;28;20033;-84
2022/01/15 11:01:05;;;;;;;14.00;6.83;;;;;;;0.84;100.00;102220.31;5010764;28;20055;-83
2022/01/15 11:03:41;;;;;;;16.47;6.90;;;;;;;0.83;100.00;102202.88;5025252;28;20044;-82
2022/01/15 11:06:10;;;;;;;15.73;6.50;;;;;;;0.78;100.00;102208.72;5056318;28;20047;-83
2022/01/15 11:08:39;;;;;;;17.93;6.70;;;;;;;0.75;100.00;102203.38;5038897;28;20100;-82
2022/01/15 11:11:09;;;;;;;17.63;7.90;;;;;;;0.79;100.00;102213.13;5024012;28;20074;-82
2022/01/15 11:13:40;;;;;;;21.27;10.93;;;;;;;0.80;100.00;102209.69;5027287;28;20045;-83
2022/01/15 11:16:14;;;;;;;26.17;11.13;;;;;;;0.78;100.00;102221.75;5043277;28;20137;-83
2022/01/15 11:18:43;;;;;;;19.73;11.40;;;;;;;0.82;100.00;102223.66;5023358;28;20040;-82
2022/01/15 11:21:14;;;;;;;19.97;9.77;;;;;;;0.76;100.00;102221.69;5039083;28;20074;-84
2022/01/15 11:23:43;;;;;;;20.03;7.13;;;;;;;0.82;100.00;102226.25;5042004;28;20052;-83
2022/01/15 11:26:11;;;;;;;15.33;7.27;;;;;;;0.83;100.00;102226.31;5051125;28;20413;-82
2022/01/15 11:28:39;;;;;;;22.33;9.23;;;;;;;0.88;100.00;102215.22;5042841;28;20052;-82
2022/01/15 11:31:11;;;;;;;24.77;14.60;;;;;;;0.91;100.00;102215.34;5047911;28;20043;-83
2022/01/15 11:33:41;;;;;;;25.57;14.93;;;;;;;0.86;100.00;102220.38;5037284;28;20390;-83
2022/01/15 11:36:08;;;;;;;20.17;10.47;;;;;;;0.83;100.00;102228.03;5043366;28;20159;-83
2022/01/15 11:38:39;;;;;;;24.70;12.33;;;;;;;0.87;100.00;102224.75;5023959;28;20040;-84
2022/01/15 11:41:26;;;;;;;27.60;13.03;;;;;;;0.83;100.00;102231.50;5022535;28;20602;-83
2022/01/15 11:44:12;;;;;;;53.50;23.87;;;;;;;0.96;100.00;102225.16;5036734;28;20091;-83
2022/01/15 11:46:49;;;;;;;41.00;20.57;;;;;;;0.84;100.00;102240.19;5018337;28;20068;-82
2022/01/15 11:49:41;;;;;;;29.57;13.63;;;;;;;0.79;100.00;102233.91;5022180;28;20041;-83